Time,TemperatureF,DewpointF,PressureIn,WindDirection,WindDirectionDegrees,WindSpeedMPH,WindSpeedGustMPH,Humidity,HourlyPrecipIn,Conditions,Clouds,dailyrainin,SoftwareType,DateUTC
2013-01-19 00:03:00,38.5,13.9,26.13,NW,315,3.1,3.1,36,0.00,,---,0.00,VWS V14.01,2013-01-19 08:03:00,
2013-01-19 00:08:00,38.3,14.3,26.13,NW,315,2.2,2.7,37,0.00,,---,0.00,VWS V14.01,2013-01-19 08:08:00,
2013-01-19 00:13:00,38.5,14.5,26.16,NW,315,2.2,3.1,37,0.00,,---,0.00,VWS V14.01,2013-01-19 08:13:00,
2013-01-19 00:18:00,38.3,14.3,26.16,NW,315,0.0,0.0,37,0.00,,---,0.00,VWS V14.01,2013-01-19 08:18:00,
2013-01-19 00:23:00,38.1,15.4,26.16,NW,315,2.7,2.7,39,0.00,,---,0.00,VWS V14.01,2013-01-19 08:23:00,
2013-01-19 00:28:00,38.3,15.5,26.13,NW,315,3.6,3.6,39,0.00,,---,0.00,VWS V14.01,2013-01-19 08:28:00,
2013-01-19 00:33:00,39.4,15.9,26.13,WNW,292,5.8,5.8,38,0.00,,---,0.00,VWS V14.01,2013-01-19 08:33:00,
2013-01-19 00:38:00,40.6,15.8,26.13,West,270,5.4,6.3,36,0.00,,---,0.00,VWS V14.01,2013-01-19 08:38:00,
2013-01-19 00:43:00,40.3,15.5,26.13,WNW,292,4.0,4.9,36,0.00,,---,0.00,VWS V14.01,2013-01-19 08:43:00,
2013-01-19 00:48:00,40.6,15.1,26.13,WNW,292,5.8,6.3,35,0.00,,---,0.00,VWS V14.01,2013-01-19 08:48:00,
2013-01-19 00:53:00,40.8,15.3,26.13,West,270,3.1,4.9,35,0.00,,---,0.00,VWS V14.01,2013-01-19 08:53:00,
2013-01-19 00:58:00,40.8,15.3,26.13,WNW,292,3.6,3.6,35,0.00,,---,0.00,VWS V14.01,2013-01-19 08:58:00,
2013-01-19 01:03:00,40.3,14.8,26.13,NW,315,3.1,3.1,35,0.00,,---,0.00,VWS V14.01,2013-01-19 09:03:00,
2013-01-19 01:08:00,39.7,15.0,26.13,East,90,3.1,3.1,36,0.00,,---,0.00,VWS V14.01,2013-01-19 09:08:00,
2013-01-19 01:13:00,39.6,14.8,26.13,SE,135,0.0,2.7,36,0.00,,---,0.00,VWS V14.01,2013-01-19 09:13:00,
2013-01-19 01:18:00,39.4,14.0,26.13,SE,135,0.0,0.0,35,0.00,,---,0.00,VWS V14.01,2013-01-19 09:18:00,
2013-01-19 01:23:00,39.0,13.7,26.13,SE,135,0.0,0.0,35,0.00,,---,0.00,VWS V14.01,2013-01-19 09:23:00,
2013-01-19 01:28:00,38.7,14.0,26.13,SE,135,0.0,0.0,36,0.00,,---,0.00,VWS V14.01,2013-01-19 09:28:00,
2013-01-19 01:33:00,39.0,15.0,26.13,WSW,248,2.7,2.7,37,0.00,,---,0.00,VWS V14.01,2013-01-19 09:33:00,
2013-01-19 01:38:00,39.4,14.7,26.13,WNW,292,3.1,3.1,36,0.00,,---,0.00,VWS V14.01,2013-01-19 09:38:00,
2013-01-19 01:43:00,39.9,15.8,26.13,NW,315,4.0,4.5,37,0.00,,---,0.00,VWS V14.01,2013-01-19 09:43:00,
2013-01-19 01:48:00,40.1,16.5,26.13,NW,315,5.4,5.4,38,0.00,,---,0.00,VWS V14.01,2013-01-19 09:48:00,
2013-01-19 01:53:00,41.9,16.3,26.13,NW,315,5.8,5.8,35,0.00,,---,0.00,VWS V14.01,2013-01-19 09:53:00,
2013-01-19 01:58:00,42.6,16.2,26.13,NW,315,5.4,5.4,34,0.00,,---,0.00,VWS V14.01,2013-01-19 09:58:00,
2013-01-19 02:03:00,43.0,15.9,26.13,NW,315,4.5,5.4,33,0.00,,---,0.00,VWS V14.01,2013-01-19 10:03:00,
2013-01-19 02:08:00,42.4,16.1,26.13,NW,315,5.4,5.4,34,0.00,,---,0.00,VWS V14.01,2013-01-19 10:08:00,
2013-01-19 02:13:00,41.2,15.6,26.13,WNW,292,2.7,2.7,35,0.00,,---,0.00,VWS V14.01,2013-01-19 10:13:00,
2013-01-19 02:18:00,40.3,16.7,26.13,WNW,292,3.1,3.1,38,0.00,,---,0.00,VWS V14.01,2013-01-19 10:18:00,
2013-01-19 02:23:00,40.5,16.9,26.13,NW,315,2.2,3.1,38,0.00,,---,0.00,VWS V14.01,2013-01-19 10:23:00,
2013-01-19 02:28:00,39.4,16.5,26.13,NW,315,0.0,0.0,39,0.00,,---,0.00,VWS V14.01,2013-01-19 10:28:00,
2013-01-19 02:33:00,38.8,16.6,26.13,NW,315,4.0,4.0,40,0.00,,---,0.00,VWS V14.01,2013-01-19 10:33:00,
2013-01-19 02:38:00,39.9,17.0,26.13,NW,315,4.9,4.9,39,0.00,,---,0.00,VWS V14.01,2013-01-19 10:38:00,
2013-01-19 02:43:00,40.1,17.1,26.13,NNW,338,4.0,4.0,39,0.00,,---,0.00,VWS V14.01,2013-01-19 10:43:00,
2013-01-19 02:48:00,40.6,17.6,26.13,NNW,338,3.1,3.1,39,0.00,,---,0.00,VWS V14.01,2013-01-19 10:48:00,
2013-01-19 02:53:00,40.5,17.5,26.13,NNW,338,4.9,4.9,39,0.00,,---,0.00,VWS V14.01,2013-01-19 10:53:00,
2013-01-19 02:58:00,41.2,17.5,26.13,NNW,338,4.9,5.8,38,0.00,,---,0.00,VWS V14.01,2013-01-19 10:58:00,
2013-01-19 03:03:00,41.7,18.0,26.13,NNW,338,5.8,5.8,38,0.00,,---,0.00,VWS V14.01,2013-01-19 11:03:00,
2013-01-19 03:08:00,41.2,17.5,26.13,NW,315,0.0,2.2,38,0.00,,---,0.00,VWS V14.01,2013-01-19 11:08:00,
2013-01-19 03:13:00,40.6,17.6,26.13,NW,315,2.7,2.7,39,0.00,,---,0.00,VWS V14.01,2013-01-19 11:13:00,
2013-01-19 04:47:00,36.7,16.3,26.13,West,270,3.1,3.1,43,0.00,,---,0.00,VWS V14.01,2013-01-19 12:47:00,
2013-01-19 04:48:00,36.7,16.8,26.13,West,270,2.2,3.1,44,0.00,,---,0.00,VWS V14.01,2013-01-19 12:48:00,
2013-01-19 04:53:00,37.0,16.6,26.13,West,270,0.0,0.0,43,0.00,,---,0.00,VWS V14.01,2013-01-19 12:53:00,
2013-01-19 04:58:00,37.0,16.6,26.13,West,270,0.0,0.0,43,0.00,,---,0.00,VWS V14.01,2013-01-19 12:58:00,
2013-01-19 05:03:00,37.0,16.6,26.13,NW,315,3.1,3.6,43,0.00,,---,0.00,VWS V14.01,2013-01-19 13:03:00,
2013-01-19 05:08:00,37.4,16.4,26.13,NW,315,2.7,2.7,42,0.00,,---,0.00,VWS V14.01,2013-01-19 13:08:00,
2013-01-19 05:13:00,37.9,16.4,26.13,NW,315,2.7,2.7,41,0.00,,---,0.00,VWS V14.01,2013-01-19 13:13:00,
2013-01-19 05:18:00,38.3,16.1,26.13,NW,315,0.0,2.2,40,0.00,,---,0.00,VWS V14.01,2013-01-19 13:18:00,
2013-01-19 05:23:00,38.5,16.3,26.13,NNW,338,0.0,0.0,40,0.00,,---,0.00,VWS V14.01,2013-01-19 13:23:00,
2013-01-19 05:28:00,39.2,16.3,26.13,NNW,338,3.1,3.1,39,0.00,,---,0.00,VWS V14.01,2013-01-19 13:28:00,
2013-01-19 05:33:00,39.4,15.9,26.13,North,0,3.1,3.1,38,0.00,,---,0.00,VWS V14.01,2013-01-19 13:33:00,
2013-01-19 05:38:00,39.7,15.6,26.13,North,0,2.2,3.6,37,0.00,,---,0.00,VWS V14.01,2013-01-19 13:38:00,
2013-01-19 05:43:00,39.7,16.2,26.13,North,0,3.1,3.1,38,0.00,,---,0.00,VWS V14.01,2013-01-19 13:43:00,
2013-01-19 05:48:00,39.0,16.2,26.13,NNE,22,4.0,4.0,39,0.00,,---,0.00,VWS V14.01,2013-01-19 13:48:00,
2013-01-19 05:53:00,38.1,15.9,26.13,NNE,22,3.6,3.6,40,0.00,,---,0.00,VWS V14.01,2013-01-19 13:53:00,
2013-01-19 05:58:00,37.8,15.6,26.13,NNE,22,3.6,3.6,40,0.00,,---,0.00,VWS V14.01,2013-01-19 13:58:00,
2013-01-19 06:03:00,37.0,15.5,26.13,NNE,22,3.1,3.6,41,0.00,,---,0.00,VWS V14.01,2013-01-19 14:03:00,
2013-01-19 06:08:00,37.0,16.1,26.13,NE,45,3.6,4.0,42,0.00,,---,0.00,VWS V14.01,2013-01-19 14:08:00,
2013-01-19 06:13:00,37.2,15.7,26.13,NE,45,3.1,3.1,41,0.00,,---,0.00,VWS V14.01,2013-01-19 14:13:00,
2013-01-19 06:18:00,37.2,15.7,26.13,NE,45,3.1,4.0,41,0.00,,---,0.00,VWS V14.01,2013-01-19 14:18:00,
2013-01-19 06:23:00,37.0,15.5,26.13,NE,45,2.7,2.7,41,0.00,,---,0.00,VWS V14.01,2013-01-19 14:23:00,
2013-01-19 06:28:00,36.9,15.4,26.13,NE,45,2.2,2.7,41,0.00,,---,0.00,VWS V14.01,2013-01-19 14:28:00,
2013-01-19 06:33:00,36.7,15.2,26.13,NE,45,3.1,3.6,41,0.00,,---,0.00,VWS V14.01,2013-01-19 14:33:00,
2013-01-19 06:38:00,36.1,14.7,26.13,NE,45,0.0,0.0,41,0.00,,---,0.00,VWS V14.01,2013-01-19 14:38:00,
2013-01-19 06:43:00,34.5,14.9,26.13,North,0,2.7,2.7,44,0.00,,---,0.00,VWS V14.01,2013-01-19 14:43:00,
2013-01-19 06:48:00,34.0,14.9,26.13,North,0,4.0,4.0,45,0.00,,---,0.00,VWS V14.01,2013-01-19 14:48:00,
2013-01-19 06:53:00,34.0,14.4,26.13,North,0,0.0,0.0,44,0.00,,---,0.00,VWS V14.01,2013-01-19 14:53:00,
2013-01-19 06:58:00,33.4,14.9,26.13,North,0,2.7,2.7,46,0.00,,---,0.00,VWS V14.01,2013-01-19 14:58:00,
2013-01-19 07:03:00,34.2,14.5,26.13,North,0,2.2,2.7,44,0.00,,---,0.00,VWS V14.01,2013-01-19 15:03:00,
2013-01-19 07:08:00,34.9,14.7,26.13,North,0,3.1,3.6,43,0.00,,---,0.00,VWS V14.01,2013-01-19 15:08:00,
2013-01-19 07:13:00,35.6,14.2,26.16,North,0,4.9,4.9,41,0.00,,---,0.00,VWS V14.01,2013-01-19 15:13:00,
2013-01-19 07:18:00,36.1,14.7,26.16,North,0,0.0,0.0,41,0.00,,---,0.00,VWS V14.01,2013-01-19 15:18:00,
2013-01-19 07:23:00,36.1,14.2,26.16,North,0,0.0,0.0,40,0.00,,---,0.00,VWS V14.01,2013-01-19 15:23:00,
2013-01-19 07:28:00,36.3,14.3,26.16,North,0,2.7,2.7,40,0.00,,---,0.00,VWS V14.01,2013-01-19 15:28:00,
2013-01-19 07:33:00,35.8,13.8,26.16,North,0,2.7,2.7,40,0.00,,---,0.00,VWS V14.01,2013-01-19 15:33:00,
2013-01-19 07:38:00,35.8,13.8,26.16,North,0,0.0,3.1,40,0.00,,---,0.00,VWS V14.01,2013-01-19 15:38:00,
2013-01-19 07:43:00,34.3,13.6,26.19,East,90,3.6,4.9,42,0.00,,---,0.00,VWS V14.01,2013-01-19 15:43:00,
2013-01-19 07:48:00,33.8,14.2,26.19,NE,45,3.1,3.6,44,0.00,,---,0.00,VWS V14.01,2013-01-19 15:48:00,
2013-01-19 07:53:00,33.4,14.4,26.19,NNE,22,2.2,2.2,45,0.00,,---,0.00,VWS V14.01,2013-01-19 15:53:00,
2013-01-19 07:58:00,32.7,13.7,26.19,NNE,22,3.6,3.6,45,0.00,,---,0.00,VWS V14.01,2013-01-19 15:58:00,
2013-01-19 08:03:00,32.5,14.1,26.19,NNE,22,2.7,2.7,46,0.00,,---,0.00,VWS V14.01,2013-01-19 16:03:00,
2013-01-19 08:08:00,32.4,13.9,26.19,NNE,22,2.2,2.7,46,0.00,,---,0.00,VWS V14.01,2013-01-19 16:08:00,
2013-01-19 08:13:00,32.5,14.1,26.19,NNE,22,3.6,3.6,46,0.00,,---,0.00,VWS V14.01,2013-01-19 16:13:00,
2013-01-19 08:18:00,32.9,13.9,26.19,NE,45,4.0,4.0,45,0.00,,---,0.00,VWS V14.01,2013-01-19 16:18:00,
2013-01-19 08:23:00,33.3,14.2,26.19,NE,45,3.6,4.0,45,0.00,,---,0.00,VWS V14.01,2013-01-19 16:23:00,
2013-01-19 08:28:00,33.6,14.6,26.22,NE,45,0.0,0.0,45,0.00,,---,0.00,VWS V14.01,2013-01-19 16:28:00,
2013-01-19 08:33:00,33.6,14.6,26.22,NE,45,0.0,2.2,45,0.00,,---,0.00,VWS V14.01,2013-01-19 16:33:00,
2013-01-19 08:38:00,33.8,14.2,26.22,NE,45,0.0,0.0,44,0.00,,---,0.00,VWS V14.01,2013-01-19 16:38:00,
2013-01-19 08:43:00,34.2,14.5,26.22,NE,45,0.0,0.0,44,0.00,,---,0.00,VWS V14.01,2013-01-19 16:43:00,
2013-01-19 08:48:00,34.5,14.9,26.22,NE,45,0.0,0.0,44,0.00,,---,0.00,VWS V14.01,2013-01-19 16:48:00,
2013-01-19 08:53:00,34.9,14.7,26.22,NE,45,0.0,0.0,43,0.00,,---,0.00,VWS V14.01,2013-01-19 16:53:00,
2013-01-19 08:58:00,35.2,15.0,26.25,NE,45,0.0,0.0,43,0.00,,---,0.00,VWS V14.01,2013-01-19 16:58:00,
2013-01-19 09:03:00,35.1,14.3,26.25,NE,45,0.0,0.0,42,0.00,,---,0.00,VWS V14.01,2013-01-19 17:03:00,
2013-01-19 09:08:00,35.2,14.5,26.25,NE,45,0.0,0.0,42,0.00,,---,0.00,VWS V14.01,2013-01-19 17:08:00,
2013-01-19 09:13:00,35.1,14.3,26.22,NE,45,0.0,0.0,42,0.00,,---,0.00,VWS V14.01,2013-01-19 17:13:00,
2013-01-19 09:18:00,35.2,14.5,26.22,NE,45,0.0,0.0,42,0.00,,---,0.00,VWS V14.01,2013-01-19 17:18:00,
2013-01-19 09:24:00,35.6,14.2,26.22,NE,45,0.0,0.0,41,0.00,,---,0.00,VWS V14.01,2013-01-19 17:24:00,
2013-01-19 09:29:00,35.8,14.4,26.22,NE,45,0.0,0.0,41,0.00,,---,0.00,VWS V14.01,2013-01-19 17:29:00,
2013-01-19 09:34:00,36.3,14.9,26.22,NE,45,0.0,0.0,41,0.00,,---,0.00,VWS V14.01,2013-01-19 17:34:00,
2013-01-19 09:39:00,37.2,15.7,26.22,NE,45,0.0,0.0,41,0.00,,---,0.00,VWS V14.01,2013-01-19 17:39:00,
2013-01-19 09:44:00,38.3,16.1,26.22,NE,45,0.0,0.0,40,0.00,,---,0.00,VWS V14.01,2013-01-19 17:44:00,
2013-01-19 09:49:00,39.6,16.7,26.22,SE,135,3.1,4.0,39,0.00,,---,0.00,VWS V14.01,2013-01-19 17:49:00,
2013-01-19 09:54:00,40.1,17.1,26.22,SE,135,3.6,3.6,39,0.00,,---,0.00,VWS V14.01,2013-01-19 17:54:00,
2013-01-19 09:59:00,39.9,17.0,26.25,SSE,158,3.6,5.4,39,0.00,,---,0.00,VWS V14.01,2013-01-19 17:59:00,
2013-01-19 10:04:00,38.7,15.9,26.25,SE,135,5.4,5.4,39,0.00,,---,0.00,VWS V14.01,2013-01-19 18:04:00,
2013-01-19 10:10:00,37.6,14.9,26.25,SE,135,0.0,0.0,39,0.00,,---,0.00,VWS V14.01,2013-01-19 18:10:00,
2013-01-19 10:15:00,38.1,15.9,26.25,SE,135,0.0,0.0,40,0.00,,---,0.00,VWS V14.01,2013-01-19 18:15:00,
2013-01-19 10:20:00,38.1,15.4,26.25,SE,135,0.0,2.7,39,0.00,,---,0.00,VWS V14.01,2013-01-19 18:20:00,
2013-01-19 10:25:00,38.8,16.0,26.25,SE,135,0.0,0.0,39,0.00,,---,0.00,VWS V14.01,2013-01-19 18:25:00,
2013-01-19 10:30:00,40.1,17.7,26.25,SE,135,0.0,0.0,40,0.00,,---,0.00,VWS V14.01,2013-01-19 18:30:00,
2013-01-19 10:35:00,41.0,18.0,26.25,SE,135,2.7,3.1,39,0.00,,---,0.00,VWS V14.01,2013-01-19 18:35:00,
2013-01-19 10:40:00,42.1,18.3,26.25,SSE,158,0.0,0.0,38,0.00,,---,0.00,VWS V14.01,2013-01-19 18:40:00,
2013-01-19 10:45:00,40.6,16.4,26.22,SE,135,4.9,6.3,37,0.00,,---,0.00,VWS V14.01,2013-01-19 18:45:00,
2013-01-19 10:50:00,37.4,14.7,26.22,SE,135,3.1,3.6,39,0.00,,---,0.00,VWS V14.01,2013-01-19 18:50:00,
2013-01-19 10:55:00,37.0,15.0,26.22,SE,135,3.1,3.6,40,0.00,,---,0.00,VWS V14.01,2013-01-19 18:55:00,
2013-01-19 11:01:00,36.5,14.5,26.25,SSE,158,0.0,2.2,40,0.00,,---,0.00,VWS V14.01,2013-01-19 19:01:00,
2013-01-19 11:06:00,36.7,14.6,26.25,SSE,158,2.7,3.1,40,0.00,,---,0.00,VWS V14.01,2013-01-19 19:06:00,
2013-01-19 11:11:00,36.0,14.0,26.22,SSE,158,0.0,2.7,40,0.00,,---,0.00,VWS V14.01,2013-01-19 19:11:00,
2013-01-19 11:16:00,36.3,14.3,26.22,SSE,158,0.0,2.2,40,0.00,,---,0.00,VWS V14.01,2013-01-19 19:16:00,
2013-01-19 11:21:00,37.6,15.5,26.22,SSE,158,0.0,0.0,40,0.00,,---,0.00,VWS V14.01,2013-01-19 19:21:00,
2013-01-19 11:26:00,38.3,16.1,26.22,SSE,158,2.2,2.2,40,0.00,,---,0.00,VWS V14.01,2013-01-19 19:26:00,
2013-01-19 11:31:00,38.1,15.4,26.22,SSE,158,3.1,4.5,39,0.00,,---,0.00,VWS V14.01,2013-01-19 19:31:00,
2013-01-19 11:37:00,38.5,15.7,26.22,SSE,158,0.0,0.0,39,0.00,,---,0.00,VWS V14.01,2013-01-19 19:37:00,
2013-01-19 11:42:00,40.6,17.6,26.22,SSE,158,0.0,0.0,39,0.00,,---,0.00,VWS V14.01,2013-01-19 19:42:00,
2013-01-19 11:47:00,41.5,17.2,26.22,SSE,158,0.0,0.0,37,0.00,,---,0.00,VWS V14.01,2013-01-19 19:47:00,
2013-01-19 11:52:00,42.8,19.0,26.22,SSE,158,0.0,0.0,38,0.00,,---,0.00,VWS V14.01,2013-01-19 19:52:00,
2013-01-19 11:57:00,43.3,17.5,26.22,SSE,158,0.0,0.0,35,0.00,,---,0.00,VWS V14.01,2013-01-19 19:57:00,
2013-01-19 12:02:00,44.1,17.5,26.22,SSE,158,3.1,3.6,34,0.00,,---,0.00,VWS V14.01,2013-01-19 20:02:00,
2013-01-19 12:07:00,45.0,17.6,26.22,SSE,158,2.2,2.7,33,0.00,,---,0.00,VWS V14.01,2013-01-19 20:07:00,
2013-01-19 12:12:00,45.5,17.4,26.22,SW,225,4.0,4.0,32,0.00,,---,0.00,VWS V14.01,2013-01-19 20:12:00,
2013-01-19 12:17:00,46.0,17.9,26.22,SW,225,2.7,2.7,32,0.00,,---,0.00,VWS V14.01,2013-01-19 20:17:00,
2013-01-19 12:22:00,46.9,17.9,26.22,WSW,248,2.7,3.1,31,0.00,,---,0.00,VWS V14.01,2013-01-19 20:22:00,
2013-01-19 12:27:00,47.3,17.5,26.22,West,270,4.5,4.5,30,0.00,,---,0.00,VWS V14.01,2013-01-19 20:27:00,
2013-01-19 12:33:00,48.0,18.1,26.22,SE,135,3.6,3.6,30,0.00,,---,0.00,VWS V14.01,2013-01-19 20:33:00,
2013-01-19 12:38:00,47.5,17.6,26.22,SW,225,3.6,4.0,30,0.00,,---,0.00,VWS V14.01,2013-01-19 20:38:00,
2013-01-19 12:43:00,48.2,18.2,26.22,SW,225,0.0,0.0,30,0.00,,---,0.00,VWS V14.01,2013-01-19 20:43:00,
2013-01-19 12:48:00,48.7,17.9,26.22,SW,225,0.0,0.0,29,0.00,,---,0.00,VWS V14.01,2013-01-19 20:48:00,
2013-01-19 12:53:00,50.2,18.4,26.22,SW,225,2.7,2.7,28,0.00,,---,0.00,VWS V14.01,2013-01-19 20:53:00,
2013-01-19 12:58:00,49.5,18.5,26.22,SW,225,4.9,5.4,29,0.00,,---,0.00,VWS V14.01,2013-01-19 20:58:00,
2013-01-19 13:03:00,48.9,18.1,26.22,SSW,202,4.0,4.0,29,0.00,,---,0.00,VWS V14.01,2013-01-19 21:03:00,
2013-01-19 13:08:00,48.0,17.3,26.22,South,180,3.6,3.6,29,0.00,,---,0.00,VWS V14.01,2013-01-19 21:08:00,
2013-01-19 13:14:00,46.9,17.1,26.22,SW,225,0.0,0.0,30,0.00,,---,0.00,VWS V14.01,2013-01-19 21:14:00,
2013-01-19 13:19:00,47.1,17.3,26.22,SW,225,2.7,2.7,30,0.00,,---,0.00,VWS V14.01,2013-01-19 21:19:00,
2013-01-19 13:24:00,46.9,17.1,26.22,SW,225,0.0,0.0,30,0.00,,---,0.00,VWS V14.01,2013-01-19 21:24:00,
2013-01-19 13:29:00,47.5,16.8,26.22,SW,225,2.7,4.0,29,0.00,,---,0.00,VWS V14.01,2013-01-19 21:29:00,
2013-01-19 13:34:00,47.8,17.1,26.22,South,180,2.2,2.7,29,0.00,,---,0.00,VWS V14.01,2013-01-19 21:34:00,
2013-01-19 13:39:00,47.7,17.8,26.22,South,180,2.2,2.2,30,0.00,,---,0.00,VWS V14.01,2013-01-19 21:39:00,
2013-01-19 13:44:00,46.4,17.4,26.19,South,180,0.0,2.7,31,0.00,,---,0.00,VWS V14.01,2013-01-19 21:44:00,
2013-01-19 13:49:00,44.4,17.1,26.19,SSE,158,0.0,0.0,33,0.00,,---,0.00,VWS V14.01,2013-01-19 21:49:00,
2013-01-19 13:54:00,42.4,16.1,26.19,South,180,0.0,0.0,34,0.00,,---,0.00,VWS V14.01,2013-01-19 21:54:00,
2013-01-19 13:59:00,42.3,16.6,26.22,South,180,0.0,0.0,35,0.00,,---,0.00,VWS V14.01,2013-01-19 21:59:00,
2013-01-19 14:04:00,41.7,16.8,26.22,South,180,0.0,0.0,36,0.00,,---,0.00,VWS V14.01,2013-01-19 22:04:00,
2013-01-19 14:09:00,39.9,16.4,26.22,SE,135,2.2,2.7,38,0.00,,---,0.00,VWS V14.01,2013-01-19 22:09:00,
2013-01-19 14:14:00,37.8,15.6,26.22,SE,135,2.7,2.7,40,0.00,,---,0.00,VWS V14.01,2013-01-19 22:14:00,
2013-01-19 14:19:00,36.1,15.3,26.22,SE,135,0.0,0.0,42,0.00,,---,0.00,VWS V14.01,2013-01-19 22:19:00,
2013-01-19 14:24:00,35.4,15.7,26.22,NE,45,3.1,3.1,44,0.00,,---,0.00,VWS V14.01,2013-01-19 22:24:00,
2013-01-19 14:29:00,35.6,17.4,26.22,NNE,22,0.0,0.0,47,0.00,,---,0.00,VWS V14.01,2013-01-19 22:29:00,
2013-01-19 14:34:00,36.5,17.2,26.22,North,0,2.7,2.7,45,0.00,,---,0.00,VWS V14.01,2013-01-19 22:34:00,
2013-01-19 14:39:00,38.8,17.2,26.22,West,270,3.6,3.6,41,0.00,,---,0.00,VWS V14.01,2013-01-19 22:39:00,
2013-01-19 14:44:00,40.6,17.6,26.22,West,270,4.9,4.9,39,0.00,,---,0.00,VWS V14.01,2013-01-19 22:44:00,
2013-01-19 14:49:00,42.3,16.6,26.22,West,270,6.7,8.1,35,0.00,,---,0.00,VWS V14.01,2013-01-19 22:49:00,
2013-01-19 14:54:00,43.3,16.2,26.22,West,270,3.1,5.8,33,0.00,,---,0.00,VWS V14.01,2013-01-19 22:54:00,
2013-01-19 14:59:00,41.0,16.1,26.22,SSW,202,3.1,3.1,36,0.00,,---,0.00,VWS V14.01,2013-01-19 22:59:00,
2013-01-19 15:05:00,38.5,15.7,26.22,South,180,3.6,4.5,39,0.00,,---,0.00,VWS V14.01,2013-01-19 23:05:00,
2013-01-19 15:10:00,37.4,15.9,26.22,SSE,158,0.0,0.0,41,0.00,,---,0.00,VWS V14.01,2013-01-19 23:10:00,
2013-01-19 15:15:00,37.2,15.7,26.22,SSE,158,0.0,0.0,41,0.00,,---,0.00,VWS V14.01,2013-01-19 23:15:00,
2013-01-19 15:20:00,36.3,14.9,26.22,NE,45,2.7,2.7,41,0.00,,---,0.00,VWS V14.01,2013-01-19 23:20:00,
2013-01-19 15:25:00,37.4,15.9,26.22,West,270,3.1,3.1,41,0.00,,---,0.00,VWS V14.01,2013-01-19 23:25:00,
2013-01-19 15:30:00,38.8,16.6,26.22,SW,225,4.0,4.5,40,0.00,,---,0.00,VWS V14.01,2013-01-19 23:30:00,
2013-01-19 15:36:00,38.8,16.6,26.22,South,180,3.6,4.0,40,0.00,,---,0.00,VWS V14.01,2013-01-19 23:36:00,
2013-01-19 15:41:00,38.1,15.9,26.22,South,180,0.0,0.0,40,0.00,,---,0.00,VWS V14.01,2013-01-19 23:41:00,
2013-01-19 15:46:00,37.8,15.6,26.22,SE,135,2.7,3.6,40,0.00,,---,0.00,VWS V14.01,2013-01-19 23:46:00,
2013-01-19 15:51:00,37.0,15.5,26.22,ESE,112,4.0,4.0,41,0.00,,---,0.00,VWS V14.01,2013-01-19 23:51:00,
2013-01-19 15:56:00,36.7,15.8,26.22,NE,45,0.0,2.2,42,0.00,,---,0.00,VWS V14.01,2013-01-19 23:56:00,
2013-01-19 16:01:00,37.4,16.4,26.22,NE,45,3.6,3.6,42,0.00,,---,0.00,VWS V14.01,2013-01-20 00:01:00,
2013-01-19 16:06:00,38.5,16.8,26.22,NNE,22,2.7,2.7,41,0.00,,---,0.00,VWS V14.01,2013-01-20 00:06:00,
2013-01-19 16:11:00,40.1,17.1,26.22,NNE,22,0.0,0.0,39,0.00,,---,0.00,VWS V14.01,2013-01-20 00:11:00,
2013-01-19 16:16:00,42.1,17.1,26.22,NNE,22,0.0,0.0,36,0.00,,---,0.00,VWS V14.01,2013-01-20 00:16:00,
2013-01-19 16:21:00,42.3,17.2,26.22,East,90,0.0,2.2,36,0.00,,---,0.00,VWS V14.01,2013-01-20 00:21:00,
2013-01-19 16:26:00,40.8,16.6,26.22,East,90,0.0,0.0,37,0.00,,---,0.00,VWS V14.01,2013-01-20 00:26:00,
2013-01-19 16:31:00,37.6,14.9,26.22,North,0,0.0,2.2,39,0.00,,---,0.00,VWS V14.01,2013-01-20 00:31:00,
2013-01-19 16:37:00,36.1,14.7,26.22,North,0,0.0,0.0,41,0.00,,---,0.00,VWS V14.01,2013-01-20 00:37:00,
2013-01-19 16:42:00,36.0,15.6,26.22,North,0,2.7,2.7,43,0.00,,---,0.00,VWS V14.01,2013-01-20 00:42:00,
2013-01-19 16:47:00,36.3,15.4,26.22,NNE,22,3.1,3.1,42,0.00,,---,0.00,VWS V14.01,2013-01-20 00:47:00,
2013-01-19 16:52:00,36.7,15.8,26.22,NE,45,3.6,4.0,42,0.00,,---,0.00,VWS V14.01,2013-01-20 00:52:00,
2013-01-19 16:58:00,36.9,15.4,26.22,NE,45,3.6,4.0,41,0.00,,---,0.00,VWS V14.01,2013-01-20 00:58:00,
2013-01-19 17:03:00,37.6,15.5,26.22,ENE,68,3.1,3.6,40,0.00,,---,0.00,VWS V14.01,2013-01-20 01:03:00,
2013-01-19 17:08:00,37.8,15.0,26.22,NE,45,2.7,2.7,39,0.00,,---,0.00,VWS V14.01,2013-01-20 01:08:00,
2013-01-19 17:13:00,36.5,15.6,26.22,NE,45,3.6,3.6,42,0.00,,---,0.00,VWS V14.01,2013-01-20 01:13:00,
2013-01-19 17:18:00,35.4,16.2,26.22,NE,45,4.9,4.9,45,0.00,,---,0.00,VWS V14.01,2013-01-20 01:18:00,
2013-01-19 17:23:00,35.2,16.5,26.22,NE,45,3.6,4.9,46,0.00,,---,0.00,VWS V14.01,2013-01-20 01:23:00,
2013-01-19 17:28:00,35.8,15.5,26.22,NE,45,3.6,3.6,43,0.00,,---,0.00,VWS V14.01,2013-01-20 01:28:00,
2013-01-19 17:33:00,36.0,15.6,26.22,NE,45,3.1,3.6,43,0.00,,---,0.00,VWS V14.01,2013-01-20 01:33:00,
2013-01-19 17:38:00,35.8,14.9,26.22,NE,45,3.6,3.6,42,0.00,,---,0.00,VWS V14.01,2013-01-20 01:38:00,
2013-01-19 17:43:00,36.0,15.1,26.22,NE,45,2.7,3.1,42,0.00,,---,0.00,VWS V14.01,2013-01-20 01:43:00,
2013-01-19 17:48:00,35.8,14.9,26.22,NNE,22,3.6,4.0,42,0.00,,---,0.00,VWS V14.01,2013-01-20 01:48:00,
2013-01-19 17:53:00,36.1,14.7,26.22,NE,45,3.6,3.6,41,0.00,,---,0.00,VWS V14.01,2013-01-20 01:53:00,
2013-01-19 17:58:00,35.8,14.9,26.22,NE,45,3.1,3.6,42,0.00,,---,0.00,VWS V14.01,2013-01-20 01:58:00,
2013-01-19 18:03:00,36.0,14.6,26.22,NE,45,3.1,3.1,41,0.00,,---,0.00,VWS V14.01,2013-01-20 02:03:00,
2013-01-19 18:08:00,36.3,14.3,26.22,NE,45,3.6,4.0,40,0.00,,---,0.00,VWS V14.01,2013-01-20 02:08:00,
2013-01-19 18:13:00,37.2,14.6,26.22,NE,45,2.7,3.1,39,0.00,,---,0.00,VWS V14.01,2013-01-20 02:13:00,
2013-01-19 18:18:00,37.0,15.0,26.22,NE,45,2.7,2.7,40,0.00,,---,0.00,VWS V14.01,2013-01-20 02:18:00,
2013-01-19 18:23:00,37.2,14.6,26.22,NE,45,2.7,2.7,39,0.00,,---,0.00,VWS V14.01,2013-01-20 02:23:00,
2013-01-19 18:29:00,37.0,14.4,26.22,NE,45,3.1,3.6,39,0.00,,---,0.00,VWS V14.01,2013-01-20 02:29:00,
2013-01-19 18:34:00,36.3,14.3,26.22,NE,45,2.7,2.7,40,0.00,,---,0.00,VWS V14.01,2013-01-20 02:34:00,
2013-01-19 18:39:00,36.1,14.2,26.22,NE,45,3.1,3.1,40,0.00,,---,0.00,VWS V14.01,2013-01-20 02:39:00,
2013-01-19 18:44:00,36.0,14.0,26.22,NE,45,3.1,3.1,40,0.00,,---,0.00,VWS V14.01,2013-01-20 02:44:00,
2013-01-19 18:49:00,36.0,14.0,26.22,NE,45,3.1,3.6,40,0.00,,---,0.00,VWS V14.01,2013-01-20 02:49:00,
2013-01-19 18:54:00,35.8,13.8,26.22,NE,45,3.6,4.0,40,0.00,,---,0.00,VWS V14.01,2013-01-20 02:54:00,
2013-01-19 18:59:00,36.1,14.2,26.22,ESE,112,2.2,3.6,40,0.00,,---,0.00,VWS V14.01,2013-01-20 02:59:00,
2013-01-19 19:04:00,35.8,13.8,26.22,East,90,0.0,0.0,40,0.00,,---,0.00,VWS V14.01,2013-01-20 03:04:00,
2013-01-19 19:09:00,35.6,13.7,26.22,East,90,2.2,2.2,40,0.00,,---,0.00,VWS V14.01,2013-01-20 03:09:00,
2013-01-19 19:14:00,35.4,13.5,26.22,East,90,0.0,0.0,40,0.00,,---,0.00,VWS V14.01,2013-01-20 03:14:00,
2013-01-19 19:19:00,35.2,13.9,26.22,NE,45,0.0,0.0,41,0.00,,---,0.00,VWS V14.01,2013-01-20 03:19:00,
2013-01-19 19:24:00,34.9,13.6,26.22,SE,135,3.6,5.4,41,0.00,,---,0.00,VWS V14.01,2013-01-20 03:24:00,
2013-01-19 19:30:00,33.8,13.7,26.25,SE,135,0.0,0.0,43,0.00,,---,0.00,VWS V14.01,2013-01-20 03:30:00,
2013-01-19 19:35:00,32.9,14.4,26.25,SE,135,0.0,0.0,46,0.00,,---,0.00,VWS V14.01,2013-01-20 03:35:00,
2013-01-19 19:40:00,31.8,14.9,26.25,SE,135,3.1,3.1,49,0.00,,---,0.00,VWS V14.01,2013-01-20 03:40:00,
2013-01-19 19:45:00,31.1,15.1,26.22,ESE,112,3.1,3.1,51,0.00,,---,0.00,VWS V14.01,2013-01-20 03:45:00,
2013-01-19 19:50:00,32.5,15.5,26.22,East,90,2.7,2.7,49,0.00,,---,0.00,VWS V14.01,2013-01-20 03:50:00,
2013-01-19 19:55:00,33.6,14.1,26.22,East,90,0.0,0.0,44,0.00,,---,0.00,VWS V14.01,2013-01-20 03:55:00,
2013-01-19 20:00:00,34.3,13.1,26.25,East,90,0.0,0.0,41,0.00,,---,0.00,VWS V14.01,2013-01-20 04:00:00,
2013-01-19 20:05:00,35.1,13.8,26.25,East,90,2.2,2.2,41,0.00,,---,0.00,VWS V14.01,2013-01-20 04:05:00,
2013-01-19 20:10:00,34.3,14.2,26.25,East,90,0.0,0.0,43,0.00,,---,0.00,VWS V14.01,2013-01-20 04:10:00,
2013-01-19 20:15:00,34.5,13.8,26.25,East,90,0.0,0.0,42,0.00,,---,0.00,VWS V14.01,2013-01-20 04:15:00,
2013-01-19 20:20:00,35.4,14.1,26.25,East,90,0.0,2.7,41,0.00,,---,0.00,VWS V14.01,2013-01-20 04:20:00,
2013-01-19 20:25:00,36.0,14.0,26.25,East,90,2.2,3.1,40,0.00,,---,0.00,VWS V14.01,2013-01-20 04:25:00,
2013-01-19 20:30:00,35.1,13.8,26.25,SE,135,4.9,4.9,41,0.00,,---,0.00,VWS V14.01,2013-01-20 04:30:00,
2013-01-19 20:36:00,33.6,14.1,26.25,East,90,2.7,3.1,44,0.00,,---,0.00,VWS V14.01,2013-01-20 04:36:00,
2013-01-19 20:41:00,33.1,14.1,26.25,East,90,0.0,0.0,45,0.00,,---,0.00,VWS V14.01,2013-01-20 04:41:00,
2013-01-19 20:46:00,32.7,14.7,26.25,NE,45,3.6,4.0,47,0.00,,---,0.00,VWS V14.01,2013-01-20 04:46:00,
2013-01-19 20:51:00,32.5,14.6,26.25,East,90,2.2,2.7,47,0.00,,---,0.00,VWS V14.01,2013-01-20 04:51:00,
2013-01-19 20:56:00,32.0,15.5,26.25,NE,45,3.6,3.6,50,0.00,,---,0.00,VWS V14.01,2013-01-20 04:56:00,
2013-01-19 21:00:00,31.5,15.0,26.25,NE,45,0.0,0.0,50,0.00,,---,0.00,VWS V14.01,2013-01-20 05:00:00,
2013-01-19 21:02:00,31.3,15.3,26.25,NE,45,0.0,0.0,51,0.00,,---,0.00,VWS V14.01,2013-01-20 05:02:00,
2013-01-19 21:03:00,31.3,15.3,26.25,NE,45,2.7,2.7,51,0.00,,---,0.00,VWS V14.01,2013-01-20 05:03:00,
2013-01-19 21:08:00,30.6,14.6,26.25,NE,45,0.0,0.0,51,0.00,,---,0.00,VWS V14.01,2013-01-20 05:08:00,
2013-01-19 21:13:00,30.2,15.1,26.25,NE,45,0.0,0.0,53,0.00,,---,0.00,VWS V14.01,2013-01-20 05:13:00,
2013-01-19 21:18:00,29.7,14.6,26.25,NE,45,2.2,2.2,53,0.00,,---,0.00,VWS V14.01,2013-01-20 05:18:00,
2013-01-19 21:23:00,30.0,14.5,26.25,NE,45,0.0,0.0,52,0.00,,---,0.00,VWS V14.01,2013-01-20 05:23:00,
2013-01-19 21:28:00,29.8,14.8,26.25,NE,45,3.1,3.1,53,0.00,,---,0.00,VWS V14.01,2013-01-20 05:28:00,
2013-01-19 21:33:00,30.9,14.9,26.25,North,0,2.7,2.7,51,0.00,,---,0.00,VWS V14.01,2013-01-20 05:33:00,
2013-01-19 21:38:00,30.6,14.6,26.25,North,0,0.0,0.0,51,0.00,,---,0.00,VWS V14.01,2013-01-20 05:38:00,
2013-01-19 21:43:00,30.4,14.4,26.25,North,0,0.0,0.0,51,0.00,,---,0.00,VWS V14.01,2013-01-20 05:43:00,
2013-01-19 21:48:00,30.2,14.3,26.25,North,0,0.0,0.0,51,0.00,,---,0.00,VWS V14.01,2013-01-20 05:48:00,
2013-01-19 21:53:00,30.0,14.1,26.25,North,0,0.0,0.0,51,0.00,,---,0.00,VWS V14.01,2013-01-20 05:53:00,
2013-01-19 21:58:00,30.0,14.1,26.25,North,0,2.2,2.2,51,0.00,,---,0.00,VWS V14.01,2013-01-20 05:58:00,
2013-01-19 22:03:00,30.4,14.0,26.25,North,0,2.2,2.2,50,0.00,,---,0.00,VWS V14.01,2013-01-20 06:03:00,
2013-01-19 22:08:00,30.4,14.0,26.25,North,0,2.2,2.2,50,0.00,,---,0.00,VWS V14.01,2013-01-20 06:08:00,
2013-01-19 22:13:00,30.2,13.8,26.25,North,0,0.0,2.2,50,0.00,,---,0.00,VWS V14.01,2013-01-20 06:13:00,
2013-01-19 22:18:00,30.2,13.8,26.25,North,0,2.2,2.2,50,0.00,,---,0.00,VWS V14.01,2013-01-20 06:18:00,
2013-01-19 22:23:00,29.7,13.8,26.25,North,0,0.0,0.0,51,0.00,,---,0.00,VWS V14.01,2013-01-20 06:23:00,
2013-01-19 22:28:00,29.5,13.6,26.25,North,0,3.1,3.1,51,0.00,,---,0.00,VWS V14.01,2013-01-20 06:28:00,
2013-01-19 22:33:00,29.5,13.6,26.25,North,0,3.1,3.1,51,0.00,,---,0.00,VWS V14.01,2013-01-20 06:33:00,
2013-01-19 22:38:00,29.5,14.0,26.25,NNE,22,2.2,2.2,52,0.00,,---,0.00,VWS V14.01,2013-01-20 06:38:00,
2013-01-19 22:43:00,29.3,13.9,26.25,NNE,22,0.0,0.0,52,0.00,,---,0.00,VWS V14.01,2013-01-20 06:43:00,
2013-01-19 22:48:00,29.7,14.2,26.25,NNE,22,2.2,2.2,52,0.00,,---,0.00,VWS V14.01,2013-01-20 06:48:00,
2013-01-19 22:53:00,29.8,13.5,26.25,East,90,0.0,2.2,50,0.00,,---,0.00,VWS V14.01,2013-01-20 06:53:00,
2013-01-19 22:58:00,29.3,13.0,26.25,NE,45,0.0,0.0,50,0.00,,---,0.00,VWS V14.01,2013-01-20 06:58:00,
2013-01-19 23:03:00,28.8,12.9,26.25,NE,45,2.7,2.7,51,0.00,,---,0.00,VWS V14.01,2013-01-20 07:03:00,
2013-01-19 23:08:00,28.6,12.8,26.25,ENE,68,0.0,0.0,51,0.00,,---,0.00,VWS V14.01,2013-01-20 07:08:00,
2013-01-19 23:13:00,28.2,12.9,26.22,NNE,22,2.7,2.7,52,0.00,,---,0.00,VWS V14.01,2013-01-20 07:13:00,
2013-01-19 23:18:00,27.9,12.5,26.22,NNE,22,2.2,2.2,52,0.00,,---,0.00,VWS V14.01,2013-01-20 07:18:00,
2013-01-19 23:23:00,27.7,12.8,26.22,NNE,22,0.0,0.0,53,0.00,,---,0.00,VWS V14.01,2013-01-20 07:23:00,
2013-01-19 23:28:00,27.5,12.6,26.22,NNE,22,2.7,2.7,53,0.00,,---,0.00,VWS V14.01,2013-01-20 07:28:00,
2013-01-19 23:33:00,27.5,12.6,26.22,NE,45,0.0,0.0,53,0.00,,---,0.00,VWS V14.01,2013-01-20 07:33:00,
2013-01-19 23:38:00,27.0,12.6,26.22,NE,45,2.2,2.2,54,0.00,,---,0.00,VWS V14.01,2013-01-20 07:38:00,
2013-01-19 23:43:00,27.0,12.6,26.25,NE,45,2.7,2.7,54,0.00,,---,0.00,VWS V14.01,2013-01-20 07:43:00,
2013-01-19 23:48:00,26.6,12.6,26.25,NE,45,2.7,4.0,55,0.00,,---,0.00,VWS V14.01,2013-01-20 07:48:00,
2013-01-19 23:53:00,27.0,13.0,26.25,NE,45,4.0,4.0,55,0.00,,---,0.00,VWS V14.01,2013-01-20 07:53:00,
2013-01-19 23:58:00,27.0,12.6,26.25,SE,135,2.7,4.0,54,0.00,,---,0.00,VWS V14.01,2013-01-20 07:58:00,